sensor_id;sensor_type;location;lat;lon;timestamp;P1;durP1;ratioP1;P2;durP2;ratioP2
23474;SDS011;11910;52.086;21.066;2023-04-24T00:02:10;15.52;;;9.45;;
23474;SDS011;11910;52.086;21.066;2023-04-24T00:04:37;17.00;;;9.20;;
23474;SDS011;11910;52.086;21.066;2023-04-24T00:07:06;14.18;;;9.07;;
23474;SDS011;11910;52.086;21.066;2023-04-24T00:09:35;14.60;;;9.15;;
23474;SDS011;11910;52.086;21.066;2023-04-24T00:12:00;12.45;;;9.15;;
23474;SDS011;11910;52.086;21.066;2023-04-24T00:14:28;14.10;;;10.18;;
23474;SDS011;11910;52.086;21.066;2023-04-24T00:16:54;15.65;;;9.15;;
23474;SDS011;11910;52.086;21.066;2023-04-24T00:19:19;11.40;;;9.57;;
23474;SDS011;11910;52.086;21.066;2023-04-24T00:21:46;15.00;;;10.13;;
23474;SDS011;11910;52.086;21.066;2023-04-24T00:24:14;14.00;;;9.98;;
23474;SDS011;11910;52.086;21.066;2023-04-24T00:26:41;19.58;;;11.45;;
23474;SDS011;11910;52.086;21.066;2023-04-24T00:29:06;16.88;;;11.57;;
23474;SDS011;11910;52.086;21.066;2023-04-24T00:31:32;18.55;;;11.10;;
23474;SDS011;11910;52.086;21.066;2023-04-24T00:33:59;15.75;;;11.20;;
23474;SDS011;11910;52.086;21.066;2023-04-24T00:36:26;18.95;;;12.02;;
23474;SDS011;11910;52.086;21.066;2023-04-24T00:38:52;18.70;;;10.65;;
23474;SDS011;11910;52.086;21.066;2023-04-24T00:41:18;13.90;;;10.95;;
23474;SDS011;11910;52.086;21.066;2023-04-24T00:43:44;18.10;;;10.15;;
23474;SDS011;11910;52.086;21.066;2023-04-24T00:46:09;14.63;;;10.20;;
23474;SDS011;11910;52.086;21.066;2023-04-24T00:48:36;14.68;;;10.50;;
23474;SDS011;11910;52.086;21.066;2023-04-24T00:51:04;16.52;;;10.35;;
23474;SDS011;11910;52.086;21.066;2023-04-24T00:53:29;17.33;;;9.90;;
23474;SDS011;11910;52.086;21.066;2023-04-24T00:55:55;12.07;;;10.00;;
23474;SDS011;11910;52.086;21.066;2023-04-24T00:58:21;15.07;;;10.20;;
23474;SDS011;11910;52.086;21.066;2023-04-24T01:00:48;13.60;;;10.27;;
23474;SDS011;11910;52.086;21.066;2023-04-24T01:03:18;15.50;;;10.13;;
23474;SDS011;11910;52.086;21.066;2023-04-24T01:05:47;14.15;;;10.98;;
23474;SDS011;11910;52.086;21.066;2023-04-24T01:08:14;13.00;;;10.02;;
23474;SDS011;11910;52.086;21.066;2023-04-24T01:10:40;14.10;;;10.50;;
23474;SDS011;11910;52.086;21.066;2023-04-24T01:13:07;16.58;;;11.07;;
23474;SDS011;11910;52.086;21.066;2023-04-24T01:15:34;12.93;;;10.15;;
23474;SDS011;11910;52.086;21.066;2023-04-24T01:17:59;15.95;;;11.45;;
23474;SDS011;11910;52.086;21.066;2023-04-24T01:20:25;16.23;;;10.98;;
23474;SDS011;11910;52.086;21.066;2023-04-24T01:22:51;13.38;;;10.90;;
23474;SDS011;11910;52.086;21.066;2023-04-24T01:25:19;15.88;;;11.15;;
23474;SDS011;11910;52.086;21.066;2023-04-24T01:27:45;15.57;;;10.75;;
23474;SDS011;11910;52.086;21.066;2023-04-24T01:30:11;15.38;;;9.90;;
23474;SDS011;11910;52.086;21.066;2023-04-24T01:32:37;15.88;;;10.63;;
23474;SDS011;11910;52.086;21.066;2023-04-24T01:35:04;14.05;;;9.52;;
23474;SDS011;11910;52.086;21.066;2023-04-24T01:37:30;17.80;;;11.10;;
23474;SDS011;11910;52.086;21.066;2023-04-24T01:39:57;13.02;;;9.63;;
23474;SDS011;11910;52.086;21.066;2023-04-24T01:42:22;14.88;;;11.10;;
23474;SDS011;11910;52.086;21.066;2023-04-24T01:44:48;16.33;;;10.90;;
23474;SDS011;11910;52.086;21.066;2023-04-24T01:47:14;14.20;;;10.82;;
23474;SDS011;11910;52.086;21.066;2023-04-24T01:49:40;15.73;;;11.07;;
23474;SDS011;11910;52.086;21.066;2023-04-24T01:52:06;12.82;;;9.95;;
23474;SDS011;11910;52.086;21.066;2023-04-24T01:54:31;13.70;;;11.07;;
23474;SDS011;11910;52.086;21.066;2023-04-24T01:56:57;13.68;;;10.30;;
23474;SDS011;11910;52.086;21.066;2023-04-24T01:59:23;18.48;;;11.73;;
23474;SDS011;11910;52.086;21.066;2023-04-24T02:01:51;14.45;;;11.82;;
23474;SDS011;11910;52.086;21.066;2023-04-24T02:04:17;15.43;;;12.05;;
23474;SDS011;11910;52.086;21.066;2023-04-24T02:06:42;11.60;;;9.45;;
23474;SDS011;11910;52.086;21.066;2023-04-24T02:09:08;14.52;;;11.82;;
23474;SDS011;11910;52.086;21.066;2023-04-24T02:11:33;16.15;;;11.63;;
23474;SDS011;11910;52.086;21.066;2023-04-24T02:13:59;15.75;;;11.73;;
23474;SDS011;11910;52.086;21.066;2023-04-24T02:16:25;16.52;;;11.85;;
23474;SDS011;11910;52.086;21.066;2023-04-24T02:18:51;15.15;;;11.07;;
23474;SDS011;11910;52.086;21.066;2023-04-24T02:21:16;15.52;;;10.95;;
23474;SDS011;11910;52.086;21.066;2023-04-24T02:23:42;12.95;;;10.77;;
23474;SDS011;11910;52.086;21.066;2023-04-24T02:26:08;14.65;;;11.77;;
23474;SDS011;11910;52.086;21.066;2023-04-24T02:28:33;14.30;;;11.40;;
23474;SDS011;11910;52.086;21.066;2023-04-24T02:30:59;14.55;;;11.85;;
23474;SDS011;11910;52.086;21.066;2023-04-24T02:33:25;14.10;;;11.10;;
23474;SDS011;11910;52.086;21.066;2023-04-24T02:35:50;16.80;;;11.15;;
23474;SDS011;11910;52.086;21.066;2023-04-24T02:38:16;17.52;;;10.80;;
23474;SDS011;11910;52.086;21.066;2023-04-24T02:40:42;17.10;;;12.07;;
23474;SDS011;11910;52.086;21.066;2023-04-24T02:43:07;15.05;;;11.40;;
23474;SDS011;11910;52.086;21.066;2023-04-24T02:45:33;13.23;;;10.70;;
23474;SDS011;11910;52.086;21.066;2023-04-24T02:47:59;15.90;;;10.50;;
23474;SDS011;11910;52.086;21.066;2023-04-24T02:50:25;12.68;;;10.77;;
23474;SDS011;11910;52.086;21.066;2023-04-24T02:52:50;11.82;;;10.55;;
23474;SDS011;11910;52.086;21.066;2023-04-24T02:55:16;13.15;;;10.65;;
23474;SDS011;11910;52.086;21.066;2023-04-24T02:57:42;14.48;;;10.95;;
23474;SDS011;11910;52.086;21.066;2023-04-24T03:00:07;14.68;;;11.38;;
23474;SDS011;11910;52.086;21.066;2023-04-24T03:02:34;12.57;;;10.52;;
23474;SDS011;11910;52.086;21.066;2023-04-24T03:04:59;13.55;;;10.52;;
23474;SDS011;11910;52.086;21.066;2023-04-24T03:07:25;13.02;;;11.18;;
23474;SDS011;11910;52.086;21.066;2023-04-24T03:09:50;14.35;;;10.65;;
23474;SDS011;11910;52.086;21.066;2023-04-24T03:12:16;13.60;;;11.32;;
23474;SDS011;11910;52.086;21.066;2023-04-24T03:14:42;14.18;;;11.18;;
23474;SDS011;11910;52.086;21.066;2023-04-24T03:17:08;12.88;;;10.25;;
23474;SDS011;11910;52.086;21.066;2023-04-24T03:19:34;14.20;;;11.25;;
23474;SDS011;11910;52.086;21.066;2023-04-24T03:22:01;12.70;;;10.00;;
23474;SDS011;11910;52.086;21.066;2023-04-24T03:24:28;13.70;;;10.38;;
23474;SDS011;11910;52.086;21.066;2023-04-24T03:26:53;14.63;;;11.10;;
23474;SDS011;11910;52.086;21.066;2023-04-24T03:29:19;13.75;;;11.15;;
23474;SDS011;11910;52.086;21.066;2023-04-24T03:31:45;16.98;;;11.27;;
23474;SDS011;11910;52.086;21.066;2023-04-24T03:34:10;13.98;;;10.65;;
23474;SDS011;11910;52.086;21.066;2023-04-24T03:36:36;18.17;;;11.00;;
23474;SDS011;11910;52.086;21.066;2023-04-24T03:39:01;16.63;;;10.90;;
23474;SDS011;11910;52.086;21.066;2023-04-24T03:41:27;13.52;;;11.38;;
23474;SDS011;11910;52.086;21.066;2023-04-24T03:43:52;17.05;;;12.02;;
23474;SDS011;11910;52.086;21.066;2023-04-24T03:46:18;20.35;;;12.43;;
23474;SDS011;11910;52.086;21.066;2023-04-24T03:48:43;18.00;;;11.90;;
23474;SDS011;11910;52.086;21.066;2023-04-24T03:51:09;18.52;;;11.77;;
23474;SDS011;11910;52.086;21.066;2023-04-24T03:53:35;16.00;;;11.02;;
23474;SDS011;11910;52.086;21.066;2023-04-24T03:56:01;17.92;;;11.40;;
23474;SDS011;11910;52.086;21.066;2023-04-24T03:58:27;18.58;;;11.77;;
23474;SDS011;11910;52.086;21.066;2023-04-24T04:00:52;14.55;;;12.35;;
23474;SDS011;11910;52.086;21.066;2023-04-24T04:03:18;19.55;;;12.25;;
23474;SDS011;11910;52.086;21.066;2023-04-24T04:05:43;15.88;;;11.85;;
23474;SDS011;11910;52.086;21.066;2023-04-24T04:08:09;15.88;;;11.55;;
23474;SDS011;11910;52.086;21.066;2023-04-24T04:10:35;16.92;;;11.80;;
23474;SDS011;11910;52.086;21.066;2023-04-24T04:13:00;20.10;;;11.27;;
23474;SDS011;11910;52.086;21.066;2023-04-24T04:15:26;13.98;;;10.88;;
23474;SDS011;11910;52.086;21.066;2023-04-24T04:17:51;22.27;;;12.73;;
23474;SDS011;11910;52.086;21.066;2023-04-24T04:20:17;27.98;;;14.38;;
23474;SDS011;11910;52.086;21.066;2023-04-24T04:22:42;24.95;;;13.57;;
23474;SDS011;11910;52.086;21.066;2023-04-24T04:25:08;20.58;;;12.88;;
23474;SDS011;11910;52.086;21.066;2023-04-24T04:27:34;24.50;;;13.05;;
23474;SDS011;11910;52.086;21.066;2023-04-24T04:30:03;23.38;;;13.80;;
23474;SDS011;11910;52.086;21.066;2023-04-24T04:32:32;15.43;;;12.15;;
23474;SDS011;11910;52.086;21.066;2023-04-24T04:34:59;16.23;;;12.43;;
23474;SDS011;11910;52.086;21.066;2023-04-24T04:37:31;15.52;;;11.85;;
23474;SDS011;11910;52.086;21.066;2023-04-24T04:39:58;17.38;;;12.57;;
23474;SDS011;11910;52.086;21.066;2023-04-24T04:42:24;18.00;;;12.40;;
23474;SDS011;11910;52.086;21.066;2023-04-24T04:44:53;15.23;;;11.35;;
23474;SDS011;11910;52.086;21.066;2023-04-24T04:47:20;17.63;;;12.45;;
23474;SDS011;11910;52.086;21.066;2023-04-24T04:49:49;17.73;;;11.98;;
23474;SDS011;11910;52.086;21.066;2023-04-24T04:52:18;16.83;;;12.57;;
23474;SDS011;11910;52.086;21.066;2023-04-24T04:54:44;16.55;;;11.68;;
23474;SDS011;11910;52.086;21.066;2023-04-24T04:57:11;15.85;;;11.80;;
23474;SDS011;11910;52.086;21.066;2023-04-24T04:59:37;17.98;;;12.15;;
23474;SDS011;11910;52.086;21.066;2023-04-24T05:02:03;16.38;;;10.93;;
23474;SDS011;11910;52.086;21.066;2023-04-24T05:04:28;17.75;;;11.57;;
23474;SDS011;11910;52.086;21.066;2023-04-24T05:06:55;17.15;;;10.15;;
23474;SDS011;11910;52.086;21.066;2023-04-24T05:09:21;15.43;;;12.02;;
23474;SDS011;11910;52.086;21.066;2023-04-24T05:11:46;16.27;;;11.40;;
23474;SDS011;11910;52.086;21.066;2023-04-24T05:14:12;18.20;;;10.65;;
23474;SDS011;11910;52.086;21.066;2023-04-24T05:16:38;18.30;;;10.35;;
23474;SDS011;11910;52.086;21.066;2023-04-24T05:19:04;18.88;;;11.20;;
23474;SDS011;11910;52.086;21.066;2023-04-24T05:21:30;14.45;;;10.43;;
23474;SDS011;11910;52.086;21.066;2023-04-24T05:23:56;14.55;;;10.27;;
23474;SDS011;11910;52.086;21.066;2023-04-24T05:26:21;16.45;;;10.63;;
23474;SDS011;11910;52.086;21.066;2023-04-24T05:28:47;21.33;;;10.60;;
23474;SDS011;11910;52.086;21.066;2023-04-24T05:31:13;14.63;;;10.05;;
23474;SDS011;11910;52.086;21.066;2023-04-24T05:33:39;14.25;;;10.57;;
23474;SDS011;11910;52.086;21.066;2023-04-24T05:36:05;16.85;;;9.93;;
23474;SDS011;11910;52.086;21.066;2023-04-24T05:38:31;15.50;;;9.35;;
23474;SDS011;11910;52.086;21.066;2023-04-24T05:40:57;17.98;;;10.65;;
23474;SDS011;11910;52.086;21.066;2023-04-24T05:43:22;20.25;;;10.10;;
23474;SDS011;11910;52.086;21.066;2023-04-24T05:45:48;14.20;;;9.85;;
23474;SDS011;11910;52.086;21.066;2023-04-24T05:48:13;12.07;;;9.88;;
23474;SDS011;11910;52.086;21.066;2023-04-24T05:50:39;14.70;;;10.02;;
23474;SDS011;11910;52.086;21.066;2023-04-24T05:53:07;16.65;;;9.43;;
23474;SDS011;11910;52.086;21.066;2023-04-24T05:55:35;16.33;;;10.05;;
23474;SDS011;11910;52.086;21.066;2023-04-24T05:58:01;17.58;;;10.07;;
23474;SDS011;11910;52.086;21.066;2023-04-24T06:00:27;11.98;;;9.57;;
23474;SDS011;11910;52.086;21.066;2023-04-24T06:02:53;19.15;;;10.57;;
23474;SDS011;11910;52.086;21.066;2023-04-24T06:05:19;14.48;;;9.48;;
23474;SDS011;11910;52.086;21.066;2023-04-24T06:07:45;14.23;;;9.82;;
23474;SDS011;11910;52.086;21.066;2023-04-24T06:10:13;21.02;;;11.90;;
23474;SDS011;11910;52.086;21.066;2023-04-24T06:12:38;29.23;;;14.40;;
23474;SDS011;11910;52.086;21.066;2023-04-24T06:15:04;23.92;;;13.52;;
23474;SDS011;11910;52.086;21.066;2023-04-24T06:17:31;17.38;;;9.73;;
23474;SDS011;11910;52.086;21.066;2023-04-24T06:19:57;21.83;;;11.82;;
23474;SDS011;11910;52.086;21.066;2023-04-24T06:22:22;15.65;;;9.85;;
23474;SDS011;11910;52.086;21.066;2023-04-24T06:24:48;14.57;;;9.50;;
23474;SDS011;11910;52.086;21.066;2023-04-24T06:27:14;13.30;;;9.18;;
23474;SDS011;11910;52.086;21.066;2023-04-24T06:29:39;12.55;;;9.20;;
23474;SDS011;11910;52.086;21.066;2023-04-24T06:32:05;14.18;;;9.43;;
23474;SDS011;11910;52.086;21.066;2023-04-24T06:34:30;15.52;;;11.25;;
23474;SDS011;11910;52.086;21.066;2023-04-24T06:36:57;13.13;;;10.35;;
23474;SDS011;11910;52.086;21.066;2023-04-24T06:39:23;15.48;;;9.32;;
23474;SDS011;11910;52.086;21.066;2023-04-24T06:41:49;20.48;;;11.00;;
23474;SDS011;11910;52.086;21.066;2023-04-24T06:44:14;14.80;;;10.20;;
23474;SDS011;11910;52.086;21.066;2023-04-24T06:46:40;12.65;;;9.93;;
23474;SDS011;11910;52.086;21.066;2023-04-24T06:49:06;13.82;;;9.15;;
23474;SDS011;11910;52.086;21.066;2023-04-24T06:51:32;14.40;;;9.65;;
23474;SDS011;11910;52.086;21.066;2023-04-24T06:53:58;12.73;;;9.40;;
23474;SDS011;11910;52.086;21.066;2023-04-24T06:56:27;12.15;;;8.73;;
23474;SDS011;11910;52.086;21.066;2023-04-24T06:58:54;12.85;;;9.13;;
23474;SDS011;11910;52.086;21.066;2023-04-24T07:01:20;18.60;;;9.68;;
23474;SDS011;11910;52.086;21.066;2023-04-24T07:03:46;14.80;;;9.50;;
23474;SDS011;11910;52.086;21.066;2023-04-24T07:06:11;13.52;;;9.05;;
23474;SDS011;11910;52.086;21.066;2023-04-24T07:08:37;12.18;;;9.57;;
23474;SDS011;11910;52.086;21.066;2023-04-24T07:11:03;12.57;;;8.73;;
23474;SDS011;11910;52.086;21.066;2023-04-24T07:13:30;17.33;;;9.00;;
23474;SDS011;11910;52.086;21.066;2023-04-24T07:15:56;14.65;;;9.18;;
23474;SDS011;11910;52.086;21.066;2023-04-24T07:18:22;12.50;;;7.88;;
23474;SDS011;11910;52.086;21.066;2023-04-24T07:20:48;12.68;;;9.07;;
23474;SDS011;11910;52.086;21.066;2023-04-24T07:23:15;13.95;;;9.13;;
23474;SDS011;11910;52.086;21.066;2023-04-24T07:25:41;12.30;;;8.55;;
23474;SDS011;11910;52.086;21.066;2023-04-24T07:28:07;12.55;;;8.73;;
23474;SDS011;11910;52.086;21.066;2023-04-24T07:30:32;15.40;;;9.55;;
23474;SDS011;11910;52.086;21.066;2023-04-24T07:32:58;13.80;;;8.45;;
23474;SDS011;11910;52.086;21.066;2023-04-24T07:35:25;12.25;;;8.50;;
23474;SDS011;11910;52.086;21.066;2023-04-24T07:37:52;18.85;;;9.30;;
23474;SDS011;11910;52.086;21.066;2023-04-24T07:40:19;12.52;;;8.65;;
23474;SDS011;11910;52.086;21.066;2023-04-24T07:42:45;15.02;;;8.45;;
23474;SDS011;11910;52.086;21.066;2023-04-24T07:45:13;12.18;;;9.40;;
23474;SDS011;11910;52.086;21.066;2023-04-24T07:47:39;14.85;;;9.15;;
23474;SDS011;11910;52.086;21.066;2023-04-24T07:50:08;11.63;;;8.88;;
23474;SDS011;11910;52.086;21.066;2023-04-24T07:52:34;12.90;;;8.43;;
23474;SDS011;11910;52.086;21.066;2023-04-24T07:55:00;16.85;;;9.05;;
23474;SDS011;11910;52.086;21.066;2023-04-24T07:57:27;14.40;;;8.93;;
23474;SDS011;11910;52.086;21.066;2023-04-24T07:59:52;13.07;;;8.60;;
23474;SDS011;11910;52.086;21.066;2023-04-24T08:02:18;13.50;;;8.93;;
23474;SDS011;11910;52.086;21.066;2023-04-24T08:04:44;15.48;;;8.25;;
23474;SDS011;11910;52.086;21.066;2023-04-24T08:07:10;11.07;;;8.13;;
23474;SDS011;11910;52.086;21.066;2023-04-24T08:09:37;12.57;;;8.23;;
23474;SDS011;11910;52.086;21.066;2023-04-24T08:12:03;14.82;;;8.20;;
23474;SDS011;11910;52.086;21.066;2023-04-24T08:14:29;19.92;;;8.60;;
23474;SDS011;11910;52.086;21.066;2023-04-24T08:16:56;12.40;;;8.73;;
23474;SDS011;11910;52.086;21.066;2023-04-24T08:19:21;16.10;;;8.43;;
23474;SDS011;11910;52.086;21.066;2023-04-24T08:21:47;13.43;;;8.27;;
23474;SDS011;11910;52.086;21.066;2023-04-24T08:24:12;13.98;;;8.00;;
23474;SDS011;11910;52.086;21.066;2023-04-24T08:26:38;12.15;;;8.63;;
23474;SDS011;11910;52.086;21.066;2023-04-24T08:29:04;13.45;;;8.63;;
23474;SDS011;11910;52.086;21.066;2023-04-24T08:31:31;9.55;;;8.15;;
23474;SDS011;11910;52.086;21.066;2023-04-24T08:33:57;10.20;;;8.32;;
23474;SDS011;11910;52.086;21.066;2023-04-24T08:36:23;13.57;;;8.85;;
23474;SDS011;11910;52.086;21.066;2023-04-24T08:38:49;11.05;;;8.15;;
23474;SDS011;11910;52.086;21.066;2023-04-24T08:41:15;9.65;;;7.60;;
23474;SDS011;11910;52.086;21.066;2023-04-24T08:43:42;11.23;;;7.72;;
23474;SDS011;11910;52.086;21.066;2023-04-24T08:46:11;11.15;;;8.02;;
23474;SDS011;11910;52.086;21.066;2023-04-24T08:48:38;10.25;;;7.93;;
23474;SDS011;11910;52.086;21.066;2023-04-24T08:51:06;11.50;;;7.47;;
23474;SDS011;11910;52.086;21.066;2023-04-24T08:53:32;12.95;;;8.13;;
23474;SDS011;11910;52.086;21.066;2023-04-24T08:55:59;10.35;;;7.50;;
23474;SDS011;11910;52.086;21.066;2023-04-24T08:58:27;10.75;;;8.07;;
23474;SDS011;11910;52.086;21.066;2023-04-24T09:00:56;12.43;;;8.27;;
23474;SDS011;11910;52.086;21.066;2023-04-24T09:03:22;16.58;;;8.50;;
23474;SDS011;11910;52.086;21.066;2023-04-24T09:05:48;11.52;;;8.65;;
23474;SDS011;11910;52.086;21.066;2023-04-24T09:08:16;15.02;;;9.23;;
23474;SDS011;11910;52.086;21.066;2023-04-24T09:10:43;14.05;;;9.43;;
23474;SDS011;11910;52.086;21.066;2023-04-24T09:13:09;11.35;;;9.05;;
23474;SDS011;11910;52.086;21.066;2023-04-24T09:15:36;15.73;;;8.60;;
23474;SDS011;11910;52.086;21.066;2023-04-24T09:18:02;13.55;;;8.98;;
23474;SDS011;11910;52.086;21.066;2023-04-24T09:20:29;15.35;;;8.98;;
23474;SDS011;11910;52.086;21.066;2023-04-24T09:22:54;15.10;;;9.07;;
23474;SDS011;11910;52.086;21.066;2023-04-24T09:25:22;13.32;;;9.02;;
23474;SDS011;11910;52.086;21.066;2023-04-24T09:28:04;10.32;;;8.85;;
23474;SDS011;11910;52.086;21.066;2023-04-24T09:30:31;15.80;;;9.90;;
23474;SDS011;11910;52.086;21.066;2023-04-24T09:33:10;12.20;;;9.63;;
23474;SDS011;11910;52.086;21.066;2023-04-24T09:35:40;13.90;;;9.07;;
23474;SDS011;11910;52.086;21.066;2023-04-24T09:38:07;15.07;;;9.05;;
23474;SDS011;11910;52.086;21.066;2023-04-24T09:40:34;10.10;;;8.57;;
23474;SDS011;11910;52.086;21.066;2023-04-24T09:42:59;16.17;;;8.95;;
23474;SDS011;11910;52.086;21.066;2023-04-24T09:45:28;15.73;;;8.60;;
23474;SDS011;11910;52.086;21.066;2023-04-24T09:48:01;10.15;;;8.02;;
23474;SDS011;11910;52.086;21.066;2023-04-24T09:50:26;10.95;;;7.38;;
23474;SDS011;11910;52.086;21.066;2023-04-24T09:52:57;8.82;;;7.32;;
23474;SDS011;11910;52.086;21.066;2023-04-24T09:55:24;10.00;;;8.30;;
23474;SDS011;11910;52.086;21.066;2023-04-24T09:57:57;10.52;;;7.45;;
23474;SDS011;11910;52.086;21.066;2023-04-24T10:00:25;14.40;;;8.25;;
23474;SDS011;11910;52.086;21.066;2023-04-24T10:03:09;9.02;;;8.13;;
23474;SDS011;11910;52.086;21.066;2023-04-24T10:05:36;16.88;;;8.57;;
23474;SDS011;11910;52.086;21.066;2023-04-24T10:08:10;8.75;;;7.72;;
23474;SDS011;11910;52.086;21.066;2023-04-24T10:10:41;10.15;;;8.13;;
23474;SDS011;11910;52.086;21.066;2023-04-24T10:13:09;9.88;;;7.60;;
23474;SDS011;11910;52.086;21.066;2023-04-24T10:15:35;11.35;;;7.68;;
23474;SDS011;11910;52.086;21.066;2023-04-24T10:18:02;12.30;;;7.75;;
23474;SDS011;11910;52.086;21.066;2023-04-24T10:20:31;11.50;;;7.57;;
23474;SDS011;11910;52.086;21.066;2023-04-24T10:22:58;8.18;;;7.22;;
23474;SDS011;11910;52.086;21.066;2023-04-24T10:25:26;10.63;;;7.55;;
23474;SDS011;11910;52.086;21.066;2023-04-24T10:27:53;7.70;;;6.90;;
23474;SDS011;11910;52.086;21.066;2023-04-24T10:30:25;12.40;;;7.22;;
23474;SDS011;11910;52.086;21.066;2023-04-24T10:32:51;9.55;;;6.22;;
23474;SDS011;11910;52.086;21.066;2023-04-24T10:35:17;7.25;;;6.28;;
23474;SDS011;11910;52.086;21.066;2023-04-24T10:38:06;7.05;;;6.10;;
23474;SDS011;11910;52.086;21.066;2023-04-24T10:40:32;8.27;;;6.57;;
23474;SDS011;11910;52.086;21.066;2023-04-24T10:42:59;10.15;;;7.00;;
23474;SDS011;11910;52.086;21.066;2023-04-24T10:45:27;8.30;;;6.88;;
23474;SDS011;11910;52.086;21.066;2023-04-24T10:48:06;10.90;;;6.93;;
23474;SDS011;11910;52.086;21.066;2023-04-24T10:50:45;13.52;;;6.40;;
23474;SDS011;11910;52.086;21.066;2023-04-24T10:53:14;7.85;;;6.88;;
23474;SDS011;11910;52.086;21.066;2023-04-24T10:55:49;9.65;;;6.53;;
23474;SDS011;11910;52.086;21.066;2023-04-24T11:01:04;10.18;;;6.75;;
23474;SDS011;11910;52.086;21.066;2023-04-24T11:03:31;7.97;;;6.53;;
23474;SDS011;11910;52.086;21.066;2023-04-24T11:05:59;10.38;;;6.50;;
23474;SDS011;11910;52.086;21.066;2023-04-24T11:19:06;11.15;;;6.78;;
23474;SDS011;11910;52.086;21.066;2023-04-24T11:26:59;11.82;;;7.18;;
23474;SDS011;11910;52.086;21.066;2023-04-24T11:29:41;10.00;;;6.97;;
23474;SDS011;11910;52.086;21.066;2023-04-24T11:32:14;10.40;;;7.30;;
23474;SDS011;11910;52.086;21.066;2023-04-24T11:34:50;10.73;;;7.60;;
23474;SDS011;11910;52.086;21.066;2023-04-24T11:37:17;10.25;;;7.15;;
23474;SDS011;11910;52.086;21.066;2023-04-24T11:39:43;9.57;;;7.43;;
23474;SDS011;11910;52.086;21.066;2023-04-24T11:42:09;13.35;;;7.18;;
23474;SDS011;11910;52.086;21.066;2023-04-24T11:44:35;13.63;;;7.35;;
23474;SDS011;11910;52.086;21.066;2023-04-24T11:47:04;12.98;;;7.68;;
23474;SDS011;11910;52.086;21.066;2023-04-24T11:49:31;9.30;;;7.15;;
23474;SDS011;11910;52.086;21.066;2023-04-24T11:51:57;8.15;;;7.30;;
23474;SDS011;11910;52.086;21.066;2023-04-24T11:54:23;13.07;;;7.45;;
23474;SDS011;11910;52.086;21.066;2023-04-24T11:56:48;7.68;;;6.88;;
23474;SDS011;11910;52.086;21.066;2023-04-24T11:59:14;14.68;;;6.40;;
23474;SDS011;11910;52.086;21.066;2023-04-24T12:01:43;12.65;;;6.90;;
23474;SDS011;11910;52.086;21.066;2023-04-24T12:04:10;7.93;;;6.50;;
23474;SDS011;11910;52.086;21.066;2023-04-24T12:06:37;7.63;;;6.50;;
23474;SDS011;11910;52.086;21.066;2023-04-24T12:09:02;8.65;;;6.40;;
23474;SDS011;11910;52.086;21.066;2023-04-24T12:11:28;8.60;;;6.70;;
23474;SDS011;11910;52.086;21.066;2023-04-24T12:13:53;9.30;;;6.35;;
23474;SDS011;11910;52.086;21.066;2023-04-24T12:16:19;9.27;;;6.50;;
23474;SDS011;11910;52.086;21.066;2023-04-24T12:18:45;12.75;;;7.28;;
23474;SDS011;11910;52.086;21.066;2023-04-24T12:21:23;13.23;;;7.25;;
23474;SDS011;11910;52.086;21.066;2023-04-24T12:23:54;11.00;;;6.75;;
23474;SDS011;11910;52.086;21.066;2023-04-24T12:26:20;12.75;;;7.35;;
23474;SDS011;11910;52.086;21.066;2023-04-24T12:28:48;35.30;;;5.88;;
23474;SDS011;11910;52.086;21.066;2023-04-24T12:31:15;31.25;;;5.75;;
23474;SDS011;11910;52.086;21.066;2023-04-24T12:33:41;11.65;;;4.43;;
23474;SDS011;11910;52.086;21.066;2023-04-24T12:36:09;15.27;;;3.63;;
23474;SDS011;11910;52.086;21.066;2023-04-24T12:38:37;32.35;;;5.38;;
23474;SDS011;11910;52.086;21.066;2023-04-24T12:41:10;12.07;;;4.20;;
23474;SDS011;11910;52.086;21.066;2023-04-24T12:43:37;16.23;;;4.22;;
23474;SDS011;11910;52.086;21.066;2023-04-24T12:46:03;11.57;;;4.40;;
23474;SDS011;11910;52.086;21.066;2023-04-24T12:48:29;12.52;;;4.10;;
23474;SDS011;11910;52.086;21.066;2023-04-24T12:50:58;11.10;;;4.60;;
23474;SDS011;11910;52.086;21.066;2023-04-24T12:53:28;8.48;;;4.03;;
23474;SDS011;11910;52.086;21.066;2023-04-24T12:55:57;7.65;;;4.28;;
23474;SDS011;11910;52.086;21.066;2023-04-24T12:58:22;9.27;;;4.70;;
23474;SDS011;11910;52.086;21.066;2023-04-24T13:00:48;8.65;;;4.13;;
23474;SDS011;11910;52.086;21.066;2023-04-24T13:03:14;6.05;;;4.00;;
23474;SDS011;11910;52.086;21.066;2023-04-24T13:05:40;7.63;;;4.15;;
23474;SDS011;11910;52.086;21.066;2023-04-24T13:08:07;6.20;;;4.00;;
23474;SDS011;11910;52.086;21.066;2023-04-24T13:10:33;9.35;;;3.95;;
23474;SDS011;11910;52.086;21.066;2023-04-24T13:12:59;7.32;;;3.90;;
23474;SDS011;11910;52.086;21.066;2023-04-24T13:15:25;8.68;;;4.55;;
23474;SDS011;11910;52.086;21.066;2023-04-24T13:17:51;6.45;;;4.60;;
23474;SDS011;11910;52.086;21.066;2023-04-24T13:20:16;5.43;;;3.97;;
23474;SDS011;11910;52.086;21.066;2023-04-24T13:22:42;4.82;;;4.07;;
23474;SDS011;11910;52.086;21.066;2023-04-24T13:25:08;5.82;;;4.00;;
23474;SDS011;11910;52.086;21.066;2023-04-24T13:27:35;14.10;;;4.18;;
23474;SDS011;11910;52.086;21.066;2023-04-24T13:30:00;6.43;;;4.03;;
23474;SDS011;11910;52.086;21.066;2023-04-24T13:32:26;6.75;;;4.18;;
23474;SDS011;11910;52.086;21.066;2023-04-24T13:34:53;7.47;;;4.65;;
23474;SDS011;11910;52.086;21.066;2023-04-24T13:37:19;6.80;;;4.32;;
23474;SDS011;11910;52.086;21.066;2023-04-24T13:39:44;5.13;;;4.43;;
23474;SDS011;11910;52.086;21.066;2023-04-24T13:42:10;5.80;;;3.95;;
23474;SDS011;11910;52.086;21.066;2023-04-24T13:44:35;5.88;;;4.07;;
23474;SDS011;11910;52.086;21.066;2023-04-24T13:47:01;6.00;;;4.15;;
23474;SDS011;11910;52.086;21.066;2023-04-24T13:49:27;5.25;;;3.75;;
23474;SDS011;11910;52.086;21.066;2023-04-24T13:51:54;6.63;;;3.60;;
23474;SDS011;11910;52.086;21.066;2023-04-24T13:54:20;6.75;;;3.70;;
23474;SDS011;11910;52.086;21.066;2023-04-24T13:56:47;6.78;;;3.97;;
23474;SDS011;11910;52.086;21.066;2023-04-24T13:59:12;5.65;;;3.90;;
23474;SDS011;11910;52.086;21.066;2023-04-24T14:01:38;6.07;;;3.95;;
23474;SDS011;11910;52.086;21.066;2023-04-24T14:04:04;8.75;;;4.00;;
23474;SDS011;11910;52.086;21.066;2023-04-24T14:06:29;5.30;;;3.97;;
23474;SDS011;11910;52.086;21.066;2023-04-24T14:08:56;7.70;;;4.15;;
23474;SDS011;11910;52.086;21.066;2023-04-24T14:11:22;6.90;;;4.90;;
23474;SDS011;11910;52.086;21.066;2023-04-24T14:13:47;6.07;;;4.63;;
23474;SDS011;11910;52.086;21.066;2023-04-24T14:16:13;5.03;;;4.10;;
23474;SDS011;11910;52.086;21.066;2023-04-24T14:18:39;5.55;;;4.07;;
23474;SDS011;11910;52.086;21.066;2023-04-24T14:21:05;7.85;;;4.10;;
23474;SDS011;11910;52.086;21.066;2023-04-24T14:23:31;7.25;;;4.30;;
23474;SDS011;11910;52.086;21.066;2023-04-24T14:25:57;5.75;;;3.80;;
23474;SDS011;11910;52.086;21.066;2023-04-24T14:28:23;7.57;;;4.40;;
23474;SDS011;11910;52.086;21.066;2023-04-24T14:30:49;9.13;;;4.30;;
23474;SDS011;11910;52.086;21.066;2023-04-24T14:33:15;4.65;;;4.13;;
23474;SDS011;11910;52.086;21.066;2023-04-24T14:35:41;6.43;;;4.45;;